createdAt,value
2024-05-09T00:02:02.802Z,100983.09
2024-05-09T00:05:20.977Z,100978.59
2024-05-09T00:08:41.894Z,100982.50
2024-05-09T00:12:10.989Z,100981.19
2024-05-09T00:15:20.338Z,100983.28
2024-05-09T00:18:41.803Z,100977.63
2024-05-09T00:21:49.928Z,100982.94
2024-05-09T00:25:04.651Z,100974.09
2024-05-09T00:28:21.520Z,100974.25
2024-05-09T00:31:49.906Z,100972.44
2024-05-09T00:35:14.621Z,100978.94
2024-05-09T00:38:36.539Z,100972.31
2024-05-09T00:41:46.632Z,100973.94
2024-05-09T00:44:57.667Z,100977.00
2024-05-09T00:48:08.481Z,100971.03
2024-05-09T00:51:13.796Z,100974.13
2024-05-09T00:54:20.148Z,100978.75
2024-05-09T00:57:36.703Z,100976.66
2024-05-09T01:01:01.675Z,100980.53
2024-05-09T01:04:23.282Z,100965.41
2024-05-09T01:07:47.505Z,100968.47
2024-05-09T01:10:53.615Z,100968.59
2024-05-09T01:14:17.507Z,100975.06
2024-05-09T01:17:54.608Z,100977.91
2024-05-09T01:21:08.607Z,100976.16
2024-05-09T01:24:32.387Z,100971.50
2024-05-09T01:27:37.094Z,100981.28
2024-05-09T01:30:47.762Z,100985.78
2024-05-09T01:33:55.509Z,100982.63
2024-05-09T01:37:09.604Z,100971.31
2024-05-09T01:40:22.017Z,100970.88
2024-05-09T01:43:32.143Z,100970.91
2024-05-09T01:46:46.609Z,100976.91
2024-05-09T01:49:51.425Z,100974.03
2024-05-09T01:53:01.958Z,100978.84
2024-05-09T01:56:24.281Z,100981.44
2024-05-09T01:59:46.768Z,100976.94
2024-05-09T02:02:58.115Z,100976.75
2024-05-09T02:06:21.326Z,100973.38
2024-05-09T02:09:54.317Z,100976.44
2024-05-09T02:13:02.826Z,100980.31
2024-05-09T02:16:28.292Z,100974.34
2024-05-09T02:19:50.250Z,100966.78
2024-05-09T02:22:57.830Z,100970.50
2024-05-09T02:26:14.413Z,100973.06
2024-05-09T02:29:38.276Z,100977.72
2024-05-09T02:32:44.544Z,100971.84
2024-05-09T02:35:57.436Z,100968.34
2024-05-09T02:39:13.944Z,100976.66
2024-05-09T02:42:33.510Z,100977.66
2024-05-09T02:45:55.550Z,100974.28
2024-05-09T02:49:01.624Z,100975.59
2024-05-09T02:52:09.276Z,100970.75
2024-05-09T02:55:17.767Z,100971.88
2024-05-09T02:58:39.346Z,100972.22
2024-05-09T03:01:56.638Z,100972.66
2024-05-09T03:05:17.294Z,100969.94
2024-05-09T03:08:40.249Z,100965.44
2024-05-09T03:11:50.804Z,100963.66
2024-05-09T03:15:07.321Z,100972.34
2024-05-09T03:18:37.320Z,100969.25
2024-05-09T03:22:04.240Z,100970.19
2024-05-09T03:25:28.302Z,100971.97
2024-05-09T03:28:49.349Z,100967.69
2024-05-09T03:32:11.168Z,100967.38
2024-05-09T03:35:18.117Z,100971.56
2024-05-09T03:38:25.047Z,100962.06
2024-05-09T03:41:46.883Z,100968.66
2024-05-09T03:45:00.399Z,100971.72
2024-05-09T03:48:04.021Z,100976.53
2024-05-09T03:51:18.494Z,100971.72
2024-05-09T03:54:34.203Z,100976.06
2024-05-09T03:57:52.225Z,100974.47
2024-05-09T04:01:13.715Z,100980.56
2024-05-09T04:04:18.987Z,100976.06
2024-05-09T04:07:27.542Z,100982.47
2024-05-09T04:10:34.608Z,100978.16
2024-05-09T04:13:56.867Z,100991.03
2024-05-09T04:17:01.508Z,100984.09
2024-05-09T04:20:08.623Z,100994.56
2024-05-09T04:23:15.925Z,101005.59
2024-05-09T04:26:32.557Z,100992.00
2024-05-09T04:29:59.209Z,101002.47
2024-05-09T04:33:27.241Z,100998.19
2024-05-09T04:36:40.261Z,101007.53
2024-05-09T04:39:49.560Z,101003.97
2024-05-09T04:43:11.843Z,101007.94
2024-05-09T04:46:21.585Z,101008.66
2024-05-09T04:49:28.942Z,101015.06
2024-05-09T04:52:54.286Z,101019.38
2024-05-09T04:56:26.056Z,101026.03
2024-05-09T04:59:51.482Z,101033.63
2024-05-09T05:02:56.958Z,101032.97
2024-05-09T05:06:22.511Z,101029.09
2024-05-09T05:10:01.259Z,101027.00
2024-05-09T05:13:18.425Z,101039.03
2024-05-09T05:16:31.734Z,101037.13
2024-05-09T05:19:52.300Z,101044.19
2024-05-09T05:22:57.043Z,101041.94
2024-05-09T05:26:12.556Z,101050.47
2024-05-09T05:29:21.249Z,101043.75
2024-05-09T05:32:34.590Z,101042.59
2024-05-09T05:35:43.603Z,101048.41
2024-05-09T05:38:52.379Z,101046.31
2024-05-09T05:41:59.496Z,101053.41
2024-05-09T05:45:09.971Z,101049.19
2024-05-09T05:48:23.668Z,101044.69
2024-05-09T05:51:44.868Z,101053.06
2024-05-09T05:55:02.088Z,101059.38
2024-05-09T05:58:23.901Z,101063.41
2024-05-09T06:01:32.248Z,101060.78
2024-05-09T06:04:47.654Z,101064.84
2024-05-09T06:08:01.286Z,101066.16
2024-05-09T06:11:16.593Z,101069.69
2024-05-09T06:14:23.270Z,101064.50
2024-05-09T06:17:28.351Z,101072.09
2024-05-09T06:20:37.135Z,101075.97
2024-05-09T06:23:53.878Z,101085.78
2024-05-09T06:27:13.099Z,101077.59
2024-05-09T06:30:49.803Z,101079.84
2024-05-09T06:34:14.221Z,101079.50
2024-05-09T06:37:29.017Z,101075.97
2024-05-09T06:40:42.569Z,101075.66
2024-05-09T06:43:55.464Z,101061.44
2024-05-09T06:47:12.581Z,101071.44
2024-05-09T06:50:24.269Z,101087.13
2024-05-09T06:53:48.271Z,101086.63
2024-05-09T06:57:22.957Z,101090.16
2024-05-09T07:00:41.211Z,101089.69
2024-05-09T07:03:47.186Z,101093.66
2024-05-09T07:07:13.864Z,101092.38
2024-05-09T07:10:35.057Z,101095.19
2024-05-09T07:14:07.151Z,101091.22
2024-05-09T07:17:44.924Z,101092.28
2024-05-09T07:20:56.713Z,101086.88
2024-05-09T07:24:20.900Z,101089.09
2024-05-09T07:27:46.879Z,101083.06
2024-05-09T07:30:59.209Z,101077.19
2024-05-09T07:34:03.664Z,101074.59
2024-05-09T07:37:14.088Z,101083.31
2024-05-09T07:40:28.544Z,101088.00
2024-05-09T07:43:49.306Z,101086.38
2024-05-09T07:53:39.974Z,101080.88
2024-05-09T07:56:50.336Z,101078.78
2024-05-09T07:59:56.166Z,101080.06
2024-05-09T08:03:07.851Z,101079.03
2024-05-09T08:06:31.764Z,101085.06
2024-05-09T08:09:40.805Z,101080.19
2024-05-09T08:13:06.154Z,101081.00
2024-05-09T08:16:17.030Z,101081.03
2024-05-09T08:19:21.529Z,101079.94
2024-05-09T08:22:36.395Z,101073.47
2024-05-09T08:25:41.493Z,101082.31
2024-05-09T08:29:04.153Z,101070.91
2024-05-09T08:32:14.006Z,101071.53
2024-05-09T08:35:19.983Z,101073.63
2024-05-09T08:38:29.209Z,101087.97
2024-05-09T08:41:49.864Z,101080.63
2024-05-09T08:45:09.703Z,101079.16
2024-05-09T08:48:23.848Z,101080.16
2024-05-09T08:51:45.799Z,101078.59
2024-05-09T08:54:59.767Z,101079.41
2024-05-09T08:58:05.708Z,101093.41
2024-05-09T09:01:11.941Z,101080.41
2024-05-09T09:04:30.817Z,101081.97
2024-05-09T09:07:56.665Z,101076.47
2024-05-09T09:11:08.450Z,101073.38
2024-05-09T09:14:19.952Z,101078.16
2024-05-09T09:17:29.607Z,101083.69
2024-05-09T09:20:40.049Z,101085.28
2024-05-09T09:24:07.531Z,101076.66
2024-05-09T09:27:17.153Z,101073.72
2024-05-09T09:30:34.778Z,101074.50
2024-05-09T09:33:57.776Z,101078.06
2024-05-09T09:37:11.564Z,101076.41
2024-05-09T09:40:30.990Z,101076.13
2024-05-09T09:43:52.681Z,101074.72
2024-05-09T09:47:08.599Z,101066.47
2024-05-09T09:50:34.822Z,101073.47
2024-05-09T09:53:45.132Z,101069.16
2024-05-09T09:57:03.623Z,101058.91
2024-05-09T10:00:33.159Z,101063.44
2024-05-09T10:03:43.200Z,101054.13
2024-05-09T10:07:00.947Z,101057.75
2024-05-09T10:10:07.053Z,101059.59
2024-05-09T10:13:20.715Z,101061.19
2024-05-09T10:16:32.417Z,101055.03
2024-05-09T10:19:43.947Z,101045.38
2024-05-09T10:22:54.806Z,101054.16
2024-05-09T10:26:09.087Z,101040.38
2024-05-09T10:29:21.432Z,101042.75
2024-05-09T10:32:39.610Z,101032.75
2024-05-09T10:35:55.390Z,101039.78
2024-05-09T10:39:17.304Z,101032.84
2024-05-09T10:42:37.299Z,101025.66
2024-05-09T10:45:57.325Z,101025.81
2024-05-09T10:49:20.068Z,101018.44
2024-05-09T10:52:37.582Z,101013.47
2024-05-09T10:56:10.768Z,101016.41
2024-05-09T10:59:27.201Z,101004.16
2024-05-09T11:02:48.605Z,101017.03
2024-05-09T11:06:10.823Z,101013.34
2024-05-09T11:09:32.781Z,101016.81
2024-05-09T11:12:39.988Z,101005.34
2024-05-09T11:15:57.779Z,101017.78
2024-05-09T11:19:15.107Z,101007.59
2024-05-09T11:22:46.119Z,101012.34
2024-05-09T11:26:15.608Z,101000.66
2024-05-09T11:29:43.967Z,100994.94
2024-05-09T11:32:53.957Z,100996.00
2024-05-09T11:36:10.190Z,100997.16
2024-05-09T11:39:27.996Z,101006.38
2024-05-09T11:42:48.239Z,100990.50
2024-05-09T11:46:15.664Z,100988.00
2024-05-09T11:49:30.320Z,100988.53
2024-05-09T11:52:48.358Z,100988.00
2024-05-09T11:56:19.066Z,100977.16
2024-05-09T11:59:36.283Z,100971.19
2024-05-09T12:03:07.074Z,100961.88
2024-05-09T12:06:23.123Z,100955.16
2024-05-09T12:09:46.970Z,100953.09
2024-05-09T12:13:10.193Z,100959.53
2024-05-09T12:16:37.121Z,100961.97
2024-05-09T12:19:58.148Z,100951.13
2024-05-09T12:23:17.681Z,100958.41
2024-05-09T12:26:46.800Z,100949.97
2024-05-09T12:29:50.617Z,100940.50
2024-05-09T12:32:56.619Z,100931.63
2024-05-09T12:36:14.506Z,100932.69
2024-05-09T12:39:29.519Z,100926.94
2024-05-09T12:42:46.055Z,100932.09
2024-05-09T12:46:07.844Z,100926.19
2024-05-09T12:49:25.633Z,100925.09
2024-05-09T12:52:34.063Z,100919.81
2024-05-09T12:56:01.851Z,100912.59
2024-05-09T12:59:28.278Z,100912.31
2024-05-09T13:02:39.011Z,100911.19
2024-05-09T13:05:56.791Z,100912.22
2024-05-09T13:09:09.623Z,100907.03
2024-05-09T13:12:14.097Z,100904.53
2024-05-09T13:15:19.673Z,100906.44
2024-05-09T13:18:36.437Z,100899.91
2024-05-09T13:21:57.293Z,100910.72
2024-05-09T13:25:14.324Z,100905.53
2024-05-09T13:28:28.497Z,100884.69
2024-05-09T13:31:43.128Z,100895.34
2024-05-09T13:35:01.018Z,100891.56
2024-05-09T13:38:14.156Z,100884.56
2024-05-09T13:41:27.322Z,100887.78
2024-05-09T13:44:34.939Z,100891.00
2024-05-09T13:47:42.645Z,100883.94
2024-05-09T13:50:53.819Z,100868.59
2024-05-09T13:54:00.830Z,100863.63
2024-05-09T13:57:15.167Z,100878.03
2024-05-09T14:00:47.894Z,100872.63
2024-05-09T14:04:00.472Z,100863.63
2024-05-09T14:07:13.460Z,100868.19
2024-05-09T14:10:28.480Z,100871.59
2024-05-09T14:13:41.380Z,100855.28
2024-05-09T14:16:56.142Z,100865.59
2024-05-09T14:20:06.154Z,100859.00
2024-05-09T14:23:21.720Z,100856.03
2024-05-09T14:26:44.534Z,100859.44
2024-05-09T14:30:00.729Z,100861.81
2024-05-09T14:33:09.452Z,100843.31
2024-05-09T14:36:34.674Z,100850.50
2024-05-09T14:40:07.288Z,100857.81
2024-05-09T14:43:28.406Z,100851.13
2024-05-09T14:46:47.714Z,100846.63
2024-05-09T14:50:16.856Z,100853.63
2024-05-09T14:53:36.828Z,100848.09
2024-05-09T14:56:47.592Z,100850.78
2024-05-09T15:00:20.863Z,100844.88
2024-05-09T15:03:42.232Z,100839.72
2024-05-09T15:07:11.565Z,100849.31
2024-05-09T15:10:37.190Z,100847.31
2024-05-09T15:13:47.863Z,100836.94
2024-05-09T15:16:52.512Z,100838.53
2024-05-09T15:19:57.089Z,100844.13
2024-05-09T15:23:02.078Z,100834.94
2024-05-09T15:26:22.653Z,100831.31
2024-05-09T15:29:43.243Z,100829.66
2024-05-09T15:33:16.536Z,100839.72
2024-05-09T15:36:43.307Z,100827.72
2024-05-09T15:40:07.424Z,100822.69
2024-05-09T15:43:14.061Z,100825.00
2024-05-09T15:46:36.103Z,100824.16
2024-05-09T15:49:48.286Z,100817.66
2024-05-09T15:53:12.950Z,100819.50
2024-05-09T15:56:33.761Z,100822.75
2024-05-09T15:59:38.939Z,100821.34
2024-05-09T16:02:49.111Z,100819.94
2024-05-09T16:05:57.775Z,100821.69
2024-05-09T16:09:06.714Z,100821.69
2024-05-09T16:12:29.784Z,100813.72
2024-05-09T16:15:50.755Z,100820.03
2024-05-09T16:18:59.851Z,100818.44
2024-05-09T16:22:10.631Z,100823.13
2024-05-09T16:25:16.230Z,100825.00
2024-05-09T16:28:27.389Z,100821.78
2024-05-09T16:31:37.497Z,100822.56
2024-05-09T16:35:00.119Z,100821.34
2024-05-09T16:38:10.105Z,100819.22
2024-05-09T16:41:25.381Z,100826.50
2024-05-09T16:44:37.975Z,100824.50
2024-05-09T16:47:51.959Z,100818.03
2024-05-09T16:51:06.452Z,100828.41
2024-05-09T16:54:31.548Z,100821.69
2024-05-09T16:57:54.858Z,100828.53
2024-05-09T17:01:03.727Z,100820.97
2024-05-09T17:04:13.658Z,100814.69
2024-05-09T17:07:26.582Z,100820.38
2024-05-09T17:10:43.376Z,100820.66
2024-05-09T17:14:08.164Z,100827.72
2024-05-09T17:17:24.758Z,100823.28
2024-05-09T17:20:48.304Z,100830.63
2024-05-09T17:24:03.193Z,100825.53
2024-05-09T17:27:16.165Z,100834.81
2024-05-09T17:30:32.585Z,100827.69
2024-05-09T17:34:05.648Z,100829.22
2024-05-09T17:37:36.259Z,100834.16
2024-05-09T17:41:04.218Z,100832.47
2024-05-09T17:44:26.226Z,100834.53
2024-05-09T17:47:42.668Z,100833.66
2024-05-09T17:50:46.779Z,100843.28
2024-05-09T17:53:51.683Z,100847.06
2024-05-09T17:57:02.220Z,100854.00
2024-05-09T18:00:29.160Z,100854.50
2024-05-09T18:03:44.213Z,100857.06
2024-05-09T18:06:59.248Z,100861.72
2024-05-09T18:10:29.804Z,100859.53
2024-05-09T18:13:49.415Z,100864.41
2024-05-09T18:17:01.044Z,100864.63
2024-05-09T18:20:36.110Z,100869.91
2024-05-09T18:24:21.695Z,100872.28
2024-05-09T18:27:50.497Z,100876.91
2024-05-09T18:31:15.579Z,100879.34
2024-05-09T18:34:39.529Z,100885.16
2024-05-09T18:37:55.780Z,100883.59
2024-05-09T18:41:17.305Z,100888.50
2024-05-09T18:44:42.415Z,100891.81
2024-05-09T18:47:56.237Z,100900.19
2024-05-09T18:51:18.293Z,100909.44
2024-05-09T18:54:36.780Z,100913.69
2024-05-09T18:58:01.578Z,100918.16
2024-05-09T19:01:20.400Z,100926.56
2024-05-09T19:04:26.092Z,100928.41
2024-05-09T19:07:34.651Z,100927.50
2024-05-09T19:10:52.204Z,100924.47
2024-05-09T19:14:07.776Z,100931.03
2024-05-09T19:18:14.729Z,100933.41
2024-05-09T19:27:28.463Z,100942.66
2024-05-09T19:30:40.909Z,100950.38
2024-05-09T19:33:54.385Z,100950.72
2024-05-09T19:37:13.250Z,100956.31
2024-05-09T19:40:24.984Z,100960.00
2024-05-09T19:43:56.887Z,100974.19
2024-05-09T19:47:00.817Z,100974.44
2024-05-09T19:50:10.726Z,100980.81
2024-05-09T19:53:39.407Z,100981.72
2024-05-09T19:57:14.097Z,100985.03
2024-05-09T20:00:40.294Z,100980.34
2024-05-09T20:04:01.337Z,100988.56
2024-05-09T20:07:20.168Z,100989.38
2024-05-09T20:10:45.248Z,100990.41
2024-05-09T20:14:08.921Z,100987.09
2024-05-09T20:17:30.006Z,100996.72
2024-05-09T20:20:54.404Z,100993.13
2024-05-09T20:24:14.505Z,100994.13
2024-05-09T20:27:39.093Z,101002.63
2024-05-09T20:31:00.375Z,101006.47
2024-05-09T20:34:07.460Z,101009.50
2024-05-09T20:37:12.294Z,101010.66
2024-05-09T20:40:28.748Z,101017.16
2024-05-09T20:43:41.123Z,101019.13
2024-05-09T20:47:04.844Z,101011.38
2024-05-09T20:50:27.387Z,101023.91
2024-05-09T20:53:48.707Z,101025.28
2024-05-09T20:57:10.788Z,101024.84
2024-05-09T21:00:26.180Z,101031.28
2024-05-09T21:03:51.095Z,101028.91
2024-05-09T21:07:12.751Z,101035.47
2024-05-09T21:10:22.413Z,101040.16
2024-05-09T21:13:48.740Z,101039.34
2024-05-09T21:17:05.072Z,101041.75
2024-05-09T21:20:29.096Z,101052.25
2024-05-09T21:23:58.886Z,101043.53
2024-05-09T21:27:23.585Z,101049.03
2024-05-09T21:30:42.766Z,101045.47
2024-05-09T21:34:07.809Z,101049.69
2024-05-09T21:37:18.725Z,101055.16
2024-05-09T21:40:40.006Z,101052.69
2024-05-09T21:44:08.655Z,101061.03
2024-05-09T21:47:18.736Z,101051.47
2024-05-09T21:50:31.614Z,101059.69
2024-05-09T21:53:47.414Z,101057.75
2024-05-09T21:57:01.448Z,101069.47
2024-05-09T22:00:28.991Z,101059.66
2024-05-09T22:03:53.296Z,101067.13
2024-05-09T22:07:17.820Z,101060.13
2024-05-09T22:10:26.980Z,101069.47
2024-05-09T22:13:54.163Z,101068.72
2024-05-09T22:17:06.295Z,101069.72
2024-05-09T22:20:34.398Z,101065.22
2024-05-09T22:23:50.610Z,101071.47
2024-05-09T22:27:07.740Z,101073.88
2024-05-09T22:30:21.298Z,101073.25
2024-05-09T22:33:35.734Z,101076.00
2024-05-09T22:36:39.767Z,101080.50
2024-05-09T22:39:55.667Z,101074.22
2024-05-09T22:43:25.428Z,101078.00
2024-05-09T22:46:40.834Z,101075.94
2024-05-09T22:50:02.914Z,101077.50
2024-05-09T22:53:23.842Z,101083.66
2024-05-09T22:56:49.225Z,101088.97
2024-05-09T23:00:09.776Z,101085.53
2024-05-09T23:03:27.145Z,101083.69
2024-05-09T23:06:38.012Z,101087.13
2024-05-09T23:10:01.760Z,101091.53
2024-05-09T23:13:24.933Z,101092.03
2024-05-09T23:16:42.745Z,101087.94
2024-05-09T23:20:06.862Z,101087.59
2024-05-09T23:23:28.916Z,101091.97
2024-05-09T23:26:47.635Z,101087.63
2024-05-09T23:30:12.574Z,101089.72
2024-05-09T23:33:40.170Z,101090.34
2024-05-09T23:36:50.259Z,101082.41
2024-05-09T23:40:18.753Z,101084.44
2024-05-09T23:43:42.017Z,101079.78
2024-05-09T23:46:56.767Z,101082.59
2024-05-09T23:50:13.788Z,101082.59
2024-05-09T23:53:30.833Z,101081.59
2024-05-09T23:56:38.752Z,101081.84
2024-05-09T23:59:47.176Z,101080.53
